Dundee, New York
Current Conditions -  °F | °C
As of 7:53 AM on Sunday 23 Nov 2014 (Local Time) from KPEO Reporting Station
Overcast Overcast  
Wind Chill: 45°   Ceiling: 5500
Heat Index: 48°   Visibility: 10mi
Dew Point: 37°   Wind: 6mph
Humidity: 66%   Direction: 160°SSE
Pressure: 30.07"   Gusts: NA
Location:  42.52°N, 76.98°W
Report Text: KPEO 231253Z AUTO 16005KT 10SM OVC055 09/03 A3007 RMK AO2 SLP188 T00890028
Loading
Personal Weather Stations






























Interactive Weather Map New forecast layout! Learn more

10-Day Weather Forecast

Advertisements
Track Severe Weather on mobile